sensor_id;sensor_type;location;lat;lon;timestamp;P1;durP1;ratioP1;P2;durP2;ratioP2
49372;SDS011;44113;38.408;-122.974;2022-10-16T00:01:08;22.90;;;3.03;;
49372;SDS011;44113;38.408;-122.974;2022-10-16T00:03:36;21.05;;;3.25;;
49372;SDS011;44113;38.408;-122.974;2022-10-16T00:06:04;22.83;;;3.50;;
49372;SDS011;44113;38.408;-122.974;2022-10-16T00:08:33;17.90;;;3.70;;
49372;SDS011;44113;38.408;-122.974;2022-10-16T00:11:05;31.83;;;6.70;;
49372;SDS011;44113;38.408;-122.974;2022-10-16T00:13:34;28.70;;;5.78;;
49372;SDS011;44113;38.408;-122.974;2022-10-16T00:16:02;26.10;;;4.80;;
49372;SDS011;44113;38.408;-122.974;2022-10-16T00:18:29;28.55;;;3.22;;
49372;SDS011;44113;38.408;-122.974;2022-10-16T00:21:01;20.02;;;4.20;;
49372;SDS011;44113;38.408;-122.974;2022-10-16T00:23:30;20.85;;;3.65;;
49372;SDS011;44113;38.408;-122.974;2022-10-16T00:25:57;12.75;;;2.78;;
49372;SDS011;44113;38.408;-122.974;2022-10-16T00:28:26;23.13;;;3.58;;
49372;SDS011;44113;38.408;-122.974;2022-10-16T00:30:53;28.25;;;2.97;;
49372;SDS011;44113;38.408;-122.974;2022-10-16T00:33:20;12.98;;;2.17;;
49372;SDS011;44113;38.408;-122.974;2022-10-16T00:35:48;17.00;;;3.50;;
49372;SDS011;44113;38.408;-122.974;2022-10-16T00:38:15;16.50;;;3.47;;
49372;SDS011;44113;38.408;-122.974;2022-10-16T00:40:42;18.85;;;3.38;;
49372;SDS011;44113;38.408;-122.974;2022-10-16T00:45:58;17.83;;;2.25;;
49372;SDS011;44113;38.408;-122.974;2022-10-16T00:48:25;12.70;;;2.97;;
49372;SDS011;44113;38.408;-122.974;2022-10-16T00:50:51;12.75;;;2.88;;
49372;SDS011;44113;38.408;-122.974;2022-10-16T00:53:18;17.63;;;3.28;;
49372;SDS011;44113;38.408;-122.974;2022-10-16T00:55:45;15.85;;;2.80;;
49372;SDS011;44113;38.408;-122.974;2022-10-16T00:58:12;10.50;;;1.45;;
49372;SDS011;44113;38.408;-122.974;2022-10-16T01:00:38;8.70;;;2.88;;
49372;SDS011;44113;38.408;-122.974;2022-10-16T01:03:21;9.48;;;2.05;;
49372;SDS011;44113;38.408;-122.974;2022-10-16T01:05:51;13.98;;;3.47;;
49372;SDS011;44113;38.408;-122.974;2022-10-16T01:08:34;8.30;;;3.60;;
49372;SDS011;44113;38.408;-122.974;2022-10-16T01:13:58;8.27;;;2.40;;
49372;SDS011;44113;38.408;-122.974;2022-10-16T01:19:04;8.73;;;2.58;;
49372;SDS011;44113;38.408;-122.974;2022-10-16T01:21:40;9.30;;;2.63;;
49372;SDS011;44113;38.408;-122.974;2022-10-16T01:27:15;10.98;;;4.10;;
49372;SDS011;44113;38.408;-122.974;2022-10-16T01:29:59;6.22;;;1.98;;
49372;SDS011;44113;38.408;-122.974;2022-10-16T01:32:39;9.63;;;1.75;;
49372;SDS011;44113;38.408;-122.974;2022-10-16T01:35:09;10.52;;;3.05;;
49372;SDS011;44113;38.408;-122.974;2022-10-16T01:38:00;7.15;;;1.55;;
49372;SDS011;44113;38.408;-122.974;2022-10-16T01:40:34;7.68;;;4.05;;
49372;SDS011;44113;38.408;-122.974;2022-10-16T01:43:13;4.72;;;1.70;;
49372;SDS011;44113;38.408;-122.974;2022-10-16T01:45:44;6.50;;;2.15;;
49372;SDS011;44113;38.408;-122.974;2022-10-16T01:48:12;13.27;;;2.83;;
49372;SDS011;44113;38.408;-122.974;2022-10-16T01:50:43;10.18;;;2.17;;
49372;SDS011;44113;38.408;-122.974;2022-10-16T01:53:15;11.27;;;2.67;;
49372;SDS011;44113;38.408;-122.974;2022-10-16T01:55:43;12.15;;;1.88;;
49372;SDS011;44113;38.408;-122.974;2022-10-16T01:58:13;9.13;;;2.22;;
49372;SDS011;44113;38.408;-122.974;2022-10-16T02:00:41;9.98;;;3.15;;
49372;SDS011;44113;38.408;-122.974;2022-10-16T02:03:12;5.15;;;1.70;;
49372;SDS011;44113;38.408;-122.974;2022-10-16T02:08:08;6.90;;;1.80;;
49372;SDS011;44113;38.408;-122.974;2022-10-16T02:10:35;8.95;;;2.17;;
49372;SDS011;44113;38.408;-122.974;2022-10-16T02:13:12;6.90;;;2.30;;
49372;SDS011;44113;38.408;-122.974;2022-10-16T02:15:45;8.93;;;2.40;;
49372;SDS011;44113;38.408;-122.974;2022-10-16T02:18:12;7.30;;;2.70;;
49372;SDS011;44113;38.408;-122.974;2022-10-16T02:23:39;3.50;;;2.08;;
49372;SDS011;44113;38.408;-122.974;2022-10-16T02:26:19;10.82;;;2.15;;
49372;SDS011;44113;38.408;-122.974;2022-10-16T02:28:55;5.60;;;2.47;;
49372;SDS011;44113;38.408;-122.974;2022-10-16T02:31:27;7.65;;;1.45;;
49372;SDS011;44113;38.408;-122.974;2022-10-16T02:33:57;5.55;;;2.08;;
49372;SDS011;44113;38.408;-122.974;2022-10-16T02:36:25;6.50;;;2.03;;
49372;SDS011;44113;38.408;-122.974;2022-10-16T02:38:52;4.80;;;2.10;;
49372;SDS011;44113;38.408;-122.974;2022-10-16T02:41:20;7.07;;;2.58;;
49372;SDS011;44113;38.408;-122.974;2022-10-16T02:43:47;5.78;;;2.42;;
49372;SDS011;44113;38.408;-122.974;2022-10-16T02:46:14;7.10;;;2.30;;
49372;SDS011;44113;38.408;-122.974;2022-10-16T02:48:42;5.45;;;1.30;;
49372;SDS011;44113;38.408;-122.974;2022-10-16T02:51:08;6.88;;;2.90;;
49372;SDS011;44113;38.408;-122.974;2022-10-16T02:53:35;8.93;;;2.90;;
49372;SDS011;44113;38.408;-122.974;2022-10-16T02:56:01;4.90;;;2.00;;
49372;SDS011;44113;38.408;-122.974;2022-10-16T02:58:27;7.38;;;3.42;;
49372;SDS011;44113;38.408;-122.974;2022-10-16T03:00:54;5.55;;;1.05;;
49372;SDS011;44113;38.408;-122.974;2022-10-16T03:03:22;6.28;;;1.85;;
49372;SDS011;44113;38.408;-122.974;2022-10-16T03:05:48;4.88;;;1.77;;
49372;SDS011;44113;38.408;-122.974;2022-10-16T03:08:15;7.80;;;2.30;;
49372;SDS011;44113;38.408;-122.974;2022-10-16T03:10:41;9.65;;;2.10;;
49372;SDS011;44113;38.408;-122.974;2022-10-16T03:13:08;4.15;;;1.98;;
49372;SDS011;44113;38.408;-122.974;2022-10-16T03:15:34;7.57;;;2.50;;
49372;SDS011;44113;38.408;-122.974;2022-10-16T03:18:00;10.90;;;1.98;;
49372;SDS011;44113;38.408;-122.974;2022-10-16T03:20:27;5.57;;;1.67;;
49372;SDS011;44113;38.408;-122.974;2022-10-16T03:22:53;8.30;;;2.38;;
49372;SDS011;44113;38.408;-122.974;2022-10-16T03:25:20;6.03;;;2.22;;
49372;SDS011;44113;38.408;-122.974;2022-10-16T03:27:47;5.75;;;2.00;;
49372;SDS011;44113;38.408;-122.974;2022-10-16T03:30:13;5.20;;;2.65;;
49372;SDS011;44113;38.408;-122.974;2022-10-16T03:32:40;5.68;;;2.00;;
49372;SDS011;44113;38.408;-122.974;2022-10-16T03:35:07;4.75;;;1.40;;
49372;SDS011;44113;38.408;-122.974;2022-10-16T03:37:33;7.90;;;1.92;;
49372;SDS011;44113;38.408;-122.974;2022-10-16T03:40:00;3.20;;;1.67;;
49372;SDS011;44113;38.408;-122.974;2022-10-16T03:42:27;5.00;;;1.20;;
49372;SDS011;44113;38.408;-122.974;2022-10-16T03:44:54;2.42;;;1.25;;
49372;SDS011;44113;38.408;-122.974;2022-10-16T03:47:20;5.05;;;2.47;;
49372;SDS011;44113;38.408;-122.974;2022-10-16T03:49:49;12.90;;;2.92;;
49372;SDS011;44113;38.408;-122.974;2022-10-16T03:52:16;4.47;;;1.45;;
49372;SDS011;44113;38.408;-122.974;2022-10-16T03:54:43;6.45;;;1.83;;
49372;SDS011;44113;38.408;-122.974;2022-10-16T03:57:09;14.15;;;1.58;;
49372;SDS011;44113;38.408;-122.974;2022-10-16T03:59:36;8.40;;;1.88;;
49372;SDS011;44113;38.408;-122.974;2022-10-16T04:02:02;7.03;;;2.38;;
49372;SDS011;44113;38.408;-122.974;2022-10-16T04:04:29;9.98;;;2.10;;
49372;SDS011;44113;38.408;-122.974;2022-10-16T04:06:55;8.43;;;2.20;;
49372;SDS011;44113;38.408;-122.974;2022-10-16T04:09:22;9.48;;;1.73;;
49372;SDS011;44113;38.408;-122.974;2022-10-16T04:11:48;4.75;;;2.63;;
49372;SDS011;44113;38.408;-122.974;2022-10-16T04:14:15;7.93;;;2.20;;
49372;SDS011;44113;38.408;-122.974;2022-10-16T04:16:42;3.17;;;1.75;;
49372;SDS011;44113;38.408;-122.974;2022-10-16T04:19:09;4.30;;;1.48;;
49372;SDS011;44113;38.408;-122.974;2022-10-16T04:21:36;8.32;;;1.65;;
49372;SDS011;44113;38.408;-122.974;2022-10-16T04:24:02;5.10;;;1.48;;
49372;SDS011;44113;38.408;-122.974;2022-10-16T04:26:29;4.70;;;2.33;;
49372;SDS011;44113;38.408;-122.974;2022-10-16T04:28:56;8.05;;;1.92;;
49372;SDS011;44113;38.408;-122.974;2022-10-16T04:31:22;8.80;;;1.58;;
49372;SDS011;44113;38.408;-122.974;2022-10-16T04:33:49;5.15;;;1.85;;
49372;SDS011;44113;38.408;-122.974;2022-10-16T04:36:15;5.78;;;2.15;;
49372;SDS011;44113;38.408;-122.974;2022-10-16T04:38:41;5.35;;;1.50;;
49372;SDS011;44113;38.408;-122.974;2022-10-16T04:41:08;17.90;;;2.55;;
49372;SDS011;44113;38.408;-122.974;2022-10-16T04:43:34;2.47;;;1.48;;
49372;SDS011;44113;38.408;-122.974;2022-10-16T04:46:01;5.13;;;1.48;;
49372;SDS011;44113;38.408;-122.974;2022-10-16T04:48:30;6.60;;;1.73;;
49372;SDS011;44113;38.408;-122.974;2022-10-16T04:50:56;3.75;;;1.77;;
49372;SDS011;44113;38.408;-122.974;2022-10-16T04:53:23;4.00;;;1.80;;
49372;SDS011;44113;38.408;-122.974;2022-10-16T04:55:50;3.78;;;2.00;;
49372;SDS011;44113;38.408;-122.974;2022-10-16T04:58:16;6.53;;;1.77;;
49372;SDS011;44113;38.408;-122.974;2022-10-16T05:00:43;3.05;;;1.45;;
49372;SDS011;44113;38.408;-122.974;2022-10-16T05:03:12;2.20;;;1.35;;
49372;SDS011;44113;38.408;-122.974;2022-10-16T05:05:42;7.10;;;2.05;;
49372;SDS011;44113;38.408;-122.974;2022-10-16T05:08:10;2.40;;;1.00;;
49372;SDS011;44113;38.408;-122.974;2022-10-16T05:10:37;5.35;;;1.58;;
49372;SDS011;44113;38.408;-122.974;2022-10-16T05:13:03;2.88;;;1.40;;
49372;SDS011;44113;38.408;-122.974;2022-10-16T05:15:30;9.07;;;2.50;;
49372;SDS011;44113;38.408;-122.974;2022-10-16T05:17:56;9.30;;;2.40;;
49372;SDS011;44113;38.408;-122.974;2022-10-16T05:20:23;7.72;;;1.80;;
49372;SDS011;44113;38.408;-122.974;2022-10-16T05:22:49;5.20;;;1.77;;
49372;SDS011;44113;38.408;-122.974;2022-10-16T05:25:16;6.13;;;1.98;;
49372;SDS011;44113;38.408;-122.974;2022-10-16T05:27:42;5.10;;;1.35;;
49372;SDS011;44113;38.408;-122.974;2022-10-16T05:30:08;2.78;;;1.23;;
49372;SDS011;44113;38.408;-122.974;2022-10-16T05:32:35;4.15;;;1.73;;
49372;SDS011;44113;38.408;-122.974;2022-10-16T05:35:02;6.00;;;2.15;;
49372;SDS011;44113;38.408;-122.974;2022-10-16T05:37:28;6.50;;;1.60;;
49372;SDS011;44113;38.408;-122.974;2022-10-16T05:39:54;4.97;;;1.60;;
49372;SDS011;44113;38.408;-122.974;2022-10-16T05:42:21;4.65;;;1.67;;
49372;SDS011;44113;38.408;-122.974;2022-10-16T05:44:47;6.55;;;1.35;;
49372;SDS011;44113;38.408;-122.974;2022-10-16T05:47:14;3.88;;;1.73;;
49372;SDS011;44113;38.408;-122.974;2022-10-16T05:49:41;6.43;;;1.30;;
49372;SDS011;44113;38.408;-122.974;2022-10-16T05:52:07;5.45;;;1.60;;
49372;SDS011;44113;38.408;-122.974;2022-10-16T05:54:34;5.53;;;1.40;;
49372;SDS011;44113;38.408;-122.974;2022-10-16T05:57:00;7.20;;;2.15;;
49372;SDS011;44113;38.408;-122.974;2022-10-16T05:59:27;5.03;;;2.25;;
49372;SDS011;44113;38.408;-122.974;2022-10-16T06:01:53;4.82;;;1.58;;
49372;SDS011;44113;38.408;-122.974;2022-10-16T06:04:20;3.00;;;1.73;;
49372;SDS011;44113;38.408;-122.974;2022-10-16T06:06:47;3.88;;;1.73;;
49372;SDS011;44113;38.408;-122.974;2022-10-16T06:09:13;4.80;;;2.03;;
49372;SDS011;44113;38.408;-122.974;2022-10-16T06:11:39;3.20;;;1.10;;
49372;SDS011;44113;38.408;-122.974;2022-10-16T06:14:07;2.35;;;1.08;;
49372;SDS011;44113;38.408;-122.974;2022-10-16T06:16:35;4.22;;;1.23;;
49372;SDS011;44113;38.408;-122.974;2022-10-16T06:19:03;5.18;;;1.27;;
49372;SDS011;44113;38.408;-122.974;2022-10-16T06:21:31;5.32;;;1.42;;
49372;SDS011;44113;38.408;-122.974;2022-10-16T06:23:58;3.38;;;1.33;;
49372;SDS011;44113;38.408;-122.974;2022-10-16T06:26:26;4.13;;;2.35;;
49372;SDS011;44113;38.408;-122.974;2022-10-16T06:28:54;5.03;;;1.70;;
49372;SDS011;44113;38.408;-122.974;2022-10-16T06:31:21;4.43;;;1.63;;
49372;SDS011;44113;38.408;-122.974;2022-10-16T06:33:52;7.65;;;1.83;;
49372;SDS011;44113;38.408;-122.974;2022-10-16T06:36:19;3.40;;;1.48;;
49372;SDS011;44113;38.408;-122.974;2022-10-16T06:38:47;3.00;;;1.35;;
49372;SDS011;44113;38.408;-122.974;2022-10-16T06:41:16;2.25;;;0.75;;
49372;SDS011;44113;38.408;-122.974;2022-10-16T06:43:44;2.95;;;1.92;;
49372;SDS011;44113;38.408;-122.974;2022-10-16T06:46:13;2.65;;;1.38;;
49372;SDS011;44113;38.408;-122.974;2022-10-16T06:48:42;2.15;;;1.42;;
49372;SDS011;44113;38.408;-122.974;2022-10-16T06:51:12;2.42;;;1.65;;
49372;SDS011;44113;38.408;-122.974;2022-10-16T06:53:40;12.68;;;1.88;;
49372;SDS011;44113;38.408;-122.974;2022-10-16T06:56:12;4.22;;;0.80;;
49372;SDS011;44113;38.408;-122.974;2022-10-16T06:58:41;2.33;;;1.08;;
49372;SDS011;44113;38.408;-122.974;2022-10-16T07:01:08;5.10;;;1.80;;
49372;SDS011;44113;38.408;-122.974;2022-10-16T07:03:37;2.97;;;1.17;;
49372;SDS011;44113;38.408;-122.974;2022-10-16T07:06:06;3.03;;;1.15;;
49372;SDS011;44113;38.408;-122.974;2022-10-16T07:08:34;4.10;;;1.40;;
49372;SDS011;44113;38.408;-122.974;2022-10-16T07:11:03;3.72;;;1.50;;
49372;SDS011;44113;38.408;-122.974;2022-10-16T07:13:35;2.35;;;1.15;;
49372;SDS011;44113;38.408;-122.974;2022-10-16T07:18:39;3.63;;;1.42;;
49372;SDS011;44113;38.408;-122.974;2022-10-16T07:21:08;2.60;;;1.60;;
49372;SDS011;44113;38.408;-122.974;2022-10-16T07:23:37;3.95;;;1.25;;
49372;SDS011;44113;38.408;-122.974;2022-10-16T07:26:04;2.20;;;1.48;;
49372;SDS011;44113;38.408;-122.974;2022-10-16T07:28:32;4.00;;;1.77;;
49372;SDS011;44113;38.408;-122.974;2022-10-16T07:31:02;3.25;;;1.15;;
49372;SDS011;44113;38.408;-122.974;2022-10-16T07:33:31;3.72;;;1.15;;
49372;SDS011;44113;38.408;-122.974;2022-10-16T07:35:58;2.42;;;0.80;;
49372;SDS011;44113;38.408;-122.974;2022-10-16T07:38:25;3.70;;;2.03;;
49372;SDS011;44113;38.408;-122.974;2022-10-16T07:41:00;4.72;;;1.35;;
49372;SDS011;44113;38.408;-122.974;2022-10-16T07:43:28;3.38;;;1.75;;
49372;SDS011;44113;38.408;-122.974;2022-10-16T07:45:55;2.67;;;1.67;;
49372;SDS011;44113;38.408;-122.974;2022-10-16T07:48:22;3.03;;;1.38;;
49372;SDS011;44113;38.408;-122.974;2022-10-16T07:50:51;3.33;;;1.23;;
49372;SDS011;44113;38.408;-122.974;2022-10-16T07:53:19;3.35;;;1.40;;
49372;SDS011;44113;38.408;-122.974;2022-10-16T07:55:45;2.97;;;1.92;;
49372;SDS011;44113;38.408;-122.974;2022-10-16T07:58:12;3.35;;;1.65;;
49372;SDS011;44113;38.408;-122.974;2022-10-16T08:00:39;4.57;;;2.30;;
49372;SDS011;44113;38.408;-122.974;2022-10-16T08:03:06;2.45;;;1.77;;
49372;SDS011;44113;38.408;-122.974;2022-10-16T08:05:33;2.47;;;1.15;;
49372;SDS011;44113;38.408;-122.974;2022-10-16T08:08:01;4.10;;;1.65;;
49372;SDS011;44113;38.408;-122.974;2022-10-16T08:10:28;2.92;;;1.10;;
49372;SDS011;44113;38.408;-122.974;2022-10-16T08:12:57;3.92;;;2.35;;
49372;SDS011;44113;38.408;-122.974;2022-10-16T08:15:24;4.85;;;1.20;;
49372;SDS011;44113;38.408;-122.974;2022-10-16T08:17:58;6.07;;;1.65;;
49372;SDS011;44113;38.408;-122.974;2022-10-16T08:20:29;3.25;;;1.13;;
49372;SDS011;44113;38.408;-122.974;2022-10-16T08:22:56;4.97;;;1.35;;
49372;SDS011;44113;38.408;-122.974;2022-10-16T08:25:24;3.10;;;1.42;;
49372;SDS011;44113;38.408;-122.974;2022-10-16T08:27:51;5.22;;;2.20;;
49372;SDS011;44113;38.408;-122.974;2022-10-16T08:30:18;8.50;;;0.82;;
49372;SDS011;44113;38.408;-122.974;2022-10-16T08:32:45;8.68;;;1.88;;
49372;SDS011;44113;38.408;-122.974;2022-10-16T08:35:12;7.15;;;1.63;;
49372;SDS011;44113;38.408;-122.974;2022-10-16T08:37:40;5.93;;;1.98;;
49372;SDS011;44113;38.408;-122.974;2022-10-16T08:40:14;3.70;;;1.58;;
49372;SDS011;44113;38.408;-122.974;2022-10-16T08:42:52;4.15;;;1.70;;
49372;SDS011;44113;38.408;-122.974;2022-10-16T08:48:22;5.03;;;2.20;;
49372;SDS011;44113;38.408;-122.974;2022-10-16T08:50:51;2.80;;;1.48;;
49372;SDS011;44113;38.408;-122.974;2022-10-16T08:53:23;7.20;;;2.47;;
49372;SDS011;44113;38.408;-122.974;2022-10-16T08:56:14;8.90;;;1.90;;
49372;SDS011;44113;38.408;-122.974;2022-10-16T08:58:42;5.97;;;1.42;;
49372;SDS011;44113;38.408;-122.974;2022-10-16T09:01:12;5.32;;;2.20;;
49372;SDS011;44113;38.408;-122.974;2022-10-16T09:06:38;4.57;;;2.17;;
49372;SDS011;44113;38.408;-122.974;2022-10-16T09:23:12;8.45;;;4.05;;
49372;SDS011;44113;38.408;-122.974;2022-10-16T09:25:43;7.30;;;1.88;;
49372;SDS011;44113;38.408;-122.974;2022-10-16T09:28:15;13.40;;;2.70;;
49372;SDS011;44113;38.408;-122.974;2022-10-16T09:30:42;5.93;;;2.67;;
49372;SDS011;44113;38.408;-122.974;2022-10-16T09:33:10;6.13;;;1.75;;
49372;SDS011;44113;38.408;-122.974;2022-10-16T09:35:45;4.45;;;1.30;;
49372;SDS011;44113;38.408;-122.974;2022-10-16T09:38:32;8.65;;;2.92;;
49372;SDS011;44113;38.408;-122.974;2022-10-16T09:44:02;5.95;;;2.80;;
49372;SDS011;44113;38.408;-122.974;2022-10-16T09:46:33;4.45;;;1.65;;
49372;SDS011;44113;38.408;-122.974;2022-10-16T09:51:36;11.75;;;3.05;;
49372;SDS011;44113;38.408;-122.974;2022-10-16T09:56:41;9.07;;;2.05;;
49372;SDS011;44113;38.408;-122.974;2022-10-16T09:59:20;3.35;;;1.73;;
49372;SDS011;44113;38.408;-122.974;2022-10-16T10:01:53;6.38;;;2.05;;
49372;SDS011;44113;38.408;-122.974;2022-10-16T10:04:21;7.13;;;3.22;;
49372;SDS011;44113;38.408;-122.974;2022-10-16T10:06:54;5.07;;;2.38;;
49372;SDS011;44113;38.408;-122.974;2022-10-16T10:09:22;8.35;;;2.72;;
49372;SDS011;44113;38.408;-122.974;2022-10-16T10:11:56;6.88;;;2.63;;
49372;SDS011;44113;38.408;-122.974;2022-10-16T10:14:35;11.88;;;3.25;;
49372;SDS011;44113;38.408;-122.974;2022-10-16T10:17:22;3.08;;;1.83;;
49372;SDS011;44113;38.408;-122.974;2022-10-16T10:22:27;7.60;;;3.15;;
49372;SDS011;44113;38.408;-122.974;2022-10-16T10:27:40;5.20;;;2.78;;
49372;SDS011;44113;38.408;-122.974;2022-10-16T10:35:48;6.35;;;3.30;;
49372;SDS011;44113;38.408;-122.974;2022-10-16T10:55:15;5.32;;;2.90;;
49372;SDS011;44113;38.408;-122.974;2022-10-16T11:03:41;4.93;;;3.15;;
49372;SDS011;44113;38.408;-122.974;2022-10-16T11:07:03;4.18;;;2.20;;
49372;SDS011;44113;38.408;-122.974;2022-10-16T11:09:23;5.32;;;2.75;;
49372;SDS011;44113;38.408;-122.974;2022-10-16T11:12:36;8.63;;;4.10;;
49372;SDS011;44113;38.408;-122.974;2022-10-16T11:15:05;4.75;;;2.10;;
49372;SDS011;44113;38.408;-122.974;2022-10-16T11:17:55;3.88;;;1.88;;
49372;SDS011;44113;38.408;-122.974;2022-10-16T11:25:57;3.50;;;2.25;;
49372;SDS011;44113;38.408;-122.974;2022-10-16T11:28:29;9.25;;;3.30;;
49372;SDS011;44113;38.408;-122.974;2022-10-16T11:31:32;6.45;;;2.53;;
49372;SDS011;44113;38.408;-122.974;2022-10-16T11:37:17;5.25;;;2.33;;
49372;SDS011;44113;38.408;-122.974;2022-10-16T11:39:45;4.43;;;2.80;;
49372;SDS011;44113;38.408;-122.974;2022-10-16T11:42:15;4.72;;;2.78;;
49372;SDS011;44113;38.408;-122.974;2022-10-16T11:47:54;4.82;;;2.65;;
49372;SDS011;44113;38.408;-122.974;2022-10-16T11:56:03;4.53;;;3.35;;
49372;SDS011;44113;38.408;-122.974;2022-10-16T11:58:33;3.67;;;2.38;;
49372;SDS011;44113;38.408;-122.974;2022-10-16T12:07:24;5.00;;;2.45;;
49372;SDS011;44113;38.408;-122.974;2022-10-16T12:09:58;4.15;;;2.85;;
49372;SDS011;44113;38.408;-122.974;2022-10-16T12:12:49;3.63;;;1.92;;
49372;SDS011;44113;38.408;-122.974;2022-10-16T12:17:48;14.27;;;3.17;;
49372;SDS011;44113;38.408;-122.974;2022-10-16T12:20:20;5.38;;;2.58;;
49372;SDS011;44113;38.408;-122.974;2022-10-16T12:22:52;5.65;;;3.20;;
49372;SDS011;44113;38.408;-122.974;2022-10-16T12:25:22;5.20;;;2.55;;
49372;SDS011;44113;38.408;-122.974;2022-10-16T12:27:56;3.35;;;1.95;;
49372;SDS011;44113;38.408;-122.974;2022-10-16T12:30:28;4.45;;;2.45;;
49372;SDS011;44113;38.408;-122.974;2022-10-16T12:33:05;6.75;;;3.35;;
49372;SDS011;44113;38.408;-122.974;2022-10-16T12:35:45;8.25;;;2.22;;
49372;SDS011;44113;38.408;-122.974;2022-10-16T12:38:16;6.05;;;2.70;;
49372;SDS011;44113;38.408;-122.974;2022-10-16T12:40:59;5.18;;;2.67;;
49372;SDS011;44113;38.408;-122.974;2022-10-16T12:43:27;6.50;;;2.90;;
49372;SDS011;44113;38.408;-122.974;2022-10-16T12:48:41;4.40;;;2.38;;
49372;SDS011;44113;38.408;-122.974;2022-10-16T12:51:23;4.00;;;2.42;;
49372;SDS011;44113;38.408;-122.974;2022-10-16T12:59:23;3.80;;;2.20;;
49372;SDS011;44113;38.408;-122.974;2022-10-16T13:15:41;5.50;;;2.88;;
49372;SDS011;44113;38.408;-122.974;2022-10-16T13:18:22;2.75;;;2.00;;
49372;SDS011;44113;38.408;-122.974;2022-10-16T13:21:00;8.75;;;3.90;;
49372;SDS011;44113;38.408;-122.974;2022-10-16T13:24:03;3.25;;;1.80;;
49372;SDS011;44113;38.408;-122.974;2022-10-16T13:29:53;3.83;;;2.38;;
49372;SDS011;44113;38.408;-122.974;2022-10-16T13:32:26;5.70;;;3.22;;
49372;SDS011;44113;38.408;-122.974;2022-10-16T13:34:53;4.95;;;3.10;;
49372;SDS011;44113;38.408;-122.974;2022-10-16T13:37:20;3.40;;;1.95;;
49372;SDS011;44113;38.408;-122.974;2022-10-16T13:39:48;2.90;;;1.50;;
49372;SDS011;44113;38.408;-122.974;2022-10-16T13:42:24;6.68;;;2.17;;
49372;SDS011;44113;38.408;-122.974;2022-10-16T13:44:53;4.32;;;2.63;;
49372;SDS011;44113;38.408;-122.974;2022-10-16T13:47:25;3.47;;;2.10;;
49372;SDS011;44113;38.408;-122.974;2022-10-16T13:50:03;6.82;;;3.88;;
49372;SDS011;44113;38.408;-122.974;2022-10-16T13:52:41;3.63;;;2.05;;
49372;SDS011;44113;38.408;-122.974;2022-10-16T13:57:39;2.97;;;1.30;;
49372;SDS011;44113;38.408;-122.974;2022-10-16T14:00:25;4.47;;;3.13;;
49372;SDS011;44113;38.408;-122.974;2022-10-16T14:02:58;3.58;;;2.67;;
49372;SDS011;44113;38.408;-122.974;2022-10-16T14:05:29;3.90;;;2.42;;
49372;SDS011;44113;38.408;-122.974;2022-10-16T14:07:56;4.28;;;1.85;;
49372;SDS011;44113;38.408;-122.974;2022-10-16T14:10:25;3.25;;;1.35;;
49372;SDS011;44113;38.408;-122.974;2022-10-16T14:13:05;2.63;;;2.10;;
49372;SDS011;44113;38.408;-122.974;2022-10-16T14:15:34;2.83;;;1.77;;
49372;SDS011;44113;38.408;-122.974;2022-10-16T14:18:02;4.15;;;2.47;;
49372;SDS011;44113;38.408;-122.974;2022-10-16T14:20:30;3.78;;;2.30;;
49372;SDS011;44113;38.408;-122.974;2022-10-16T14:23:19;2.85;;;1.88;;
49372;SDS011;44113;38.408;-122.974;2022-10-16T14:25:45;3.95;;;1.80;;
49372;SDS011;44113;38.408;-122.974;2022-10-16T14:28:20;4.38;;;2.03;;
49372;SDS011;44113;38.408;-122.974;2022-10-16T14:30:55;4.22;;;1.65;;
49372;SDS011;44113;38.408;-122.974;2022-10-16T14:36:06;5.18;;;2.22;;
49372;SDS011;44113;38.408;-122.974;2022-10-16T14:38:42;3.75;;;1.90;;
49372;SDS011;44113;38.408;-122.974;2022-10-16T14:41:21;3.50;;;1.75;;
49372;SDS011;44113;38.408;-122.974;2022-10-16T14:43:55;2.80;;;1.50;;
49372;SDS011;44113;38.408;-122.974;2022-10-16T14:46:35;5.35;;;2.13;;
49372;SDS011;44113;38.408;-122.974;2022-10-16T14:51:37;6.57;;;2.03;;
49372;SDS011;44113;38.408;-122.974;2022-10-16T14:54:09;3.78;;;2.10;;
49372;SDS011;44113;38.408;-122.974;2022-10-16T14:59:23;3.95;;;1.67;;
49372;SDS011;44113;38.408;-122.974;2022-10-16T15:01:54;3.83;;;1.40;;
49372;SDS011;44113;38.408;-122.974;2022-10-16T15:04:21;2.78;;;1.48;;
49372;SDS011;44113;38.408;-122.974;2022-10-16T15:06:47;3.45;;;1.60;;
49372;SDS011;44113;38.408;-122.974;2022-10-16T15:09:13;4.90;;;2.15;;
49372;SDS011;44113;38.408;-122.974;2022-10-16T15:11:40;3.28;;;1.20;;
49372;SDS011;44113;38.408;-122.974;2022-10-16T15:14:13;2.33;;;1.40;;
49372;SDS011;44113;38.408;-122.974;2022-10-16T15:16:39;3.65;;;1.55;;
49372;SDS011;44113;38.408;-122.974;2022-10-16T15:19:06;4.72;;;1.30;;
49372;SDS011;44113;38.408;-122.974;2022-10-16T15:21:33;3.33;;;1.40;;
49372;SDS011;44113;38.408;-122.974;2022-10-16T15:23:59;4.55;;;1.40;;
49372;SDS011;44113;38.408;-122.974;2022-10-16T15:26:27;3.50;;;1.63;;
49372;SDS011;44113;38.408;-122.974;2022-10-16T15:28:55;5.38;;;1.50;;
49372;SDS011;44113;38.408;-122.974;2022-10-16T15:31:21;3.15;;;1.10;;
49372;SDS011;44113;38.408;-122.974;2022-10-16T15:33:52;3.97;;;1.00;;
49372;SDS011;44113;38.408;-122.974;2022-10-16T15:36:30;2.95;;;1.73;;
49372;SDS011;44113;38.408;-122.974;2022-10-16T15:39:02;3.67;;;1.27;;
49372;SDS011;44113;38.408;-122.974;2022-10-16T15:41:37;3.10;;;2.05;;
49372;SDS011;44113;38.408;-122.974;2022-10-16T15:44:04;3.33;;;1.70;;
49372;SDS011;44113;38.408;-122.974;2022-10-16T15:46:30;5.40;;;2.40;;
49372;SDS011;44113;38.408;-122.974;2022-10-16T15:48:58;2.25;;;1.42;;
49372;SDS011;44113;38.408;-122.974;2022-10-16T15:51:26;3.30;;;1.35;;
49372;SDS011;44113;38.408;-122.974;2022-10-16T15:53:57;4.45;;;2.17;;
49372;SDS011;44113;38.408;-122.974;2022-10-16T15:56:27;3.17;;;1.60;;
49372;SDS011;44113;38.408;-122.974;2022-10-16T15:58:54;1.98;;;1.08;;
49372;SDS011;44113;38.408;-122.974;2022-10-16T16:01:20;4.05;;;2.38;;
49372;SDS011;44113;38.408;-122.974;2022-10-16T16:03:47;3.25;;;1.23;;
49372;SDS011;44113;38.408;-122.974;2022-10-16T16:06:17;6.95;;;1.25;;
49372;SDS011;44113;38.408;-122.974;2022-10-16T16:08:45;2.55;;;1.33;;
49372;SDS011;44113;38.408;-122.974;2022-10-16T16:11:12;2.63;;;1.23;;
49372;SDS011;44113;38.408;-122.974;2022-10-16T16:13:40;2.65;;;1.50;;
49372;SDS011;44113;38.408;-122.974;2022-10-16T16:16:11;2.38;;;1.15;;
49372;SDS011;44113;38.408;-122.974;2022-10-16T16:18:39;2.83;;;1.85;;
49372;SDS011;44113;38.408;-122.974;2022-10-16T16:21:06;1.90;;;1.48;;
49372;SDS011;44113;38.408;-122.974;2022-10-16T16:23:34;3.17;;;1.58;;
49372;SDS011;44113;38.408;-122.974;2022-10-16T16:26:03;3.78;;;1.42;;
49372;SDS011;44113;38.408;-122.974;2022-10-16T16:28:30;3.17;;;1.55;;
49372;SDS011;44113;38.408;-122.974;2022-10-16T16:30:57;3.63;;;1.10;;
49372;SDS011;44113;38.408;-122.974;2022-10-16T16:33:23;2.03;;;0.85;;
49372;SDS011;44113;38.408;-122.974;2022-10-16T16:35:50;1.83;;;0.85;;
49372;SDS011;44113;38.408;-122.974;2022-10-16T16:38:21;3.08;;;1.30;;
49372;SDS011;44113;38.408;-122.974;2022-10-16T16:40:47;4.40;;;1.95;;
49372;SDS011;44113;38.408;-122.974;2022-10-16T16:43:14;6.22;;;1.00;;
49372;SDS011;44113;38.408;-122.974;2022-10-16T16:45:40;4.50;;;1.67;;
49372;SDS011;44113;38.408;-122.974;2022-10-16T16:48:06;2.72;;;1.00;;